sensor_id;sensor_type;location;lat;lon;timestamp;P1;durP1;ratioP1;P2;durP2;ratioP2
18661;SDS011;61528;49.456;11.098;2024-02-04T00:00:58;1.60;;;1.50;;
18661;SDS011;61528;49.456;11.098;2024-02-04T00:03:25;2.00;;;1.70;;
18661;SDS011;61528;49.456;11.098;2024-02-04T00:05:51;1.67;;;1.57;;
18661;SDS011;61528;49.456;11.098;2024-02-04T00:08:17;1.60;;;1.50;;
18661;SDS011;61528;49.456;11.098;2024-02-04T00:10:44;1.50;;;1.40;;
18661;SDS011;61528;49.456;11.098;2024-02-04T00:13:10;2.37;;;1.70;;
18661;SDS011;61528;49.456;11.098;2024-02-04T00:15:36;1.60;;;1.50;;
18661;SDS011;61528;49.456;11.098;2024-02-04T00:18:02;1.57;;;1.47;;
18661;SDS011;61528;49.456;11.098;2024-02-04T00:20:28;1.53;;;1.43;;
18661;SDS011;61528;49.456;11.098;2024-02-04T00:22:58;1.33;;;1.23;;
18661;SDS011;61528;49.456;11.098;2024-02-04T00:25:24;1.30;;;1.20;;
18661;SDS011;61528;49.456;11.098;2024-02-04T00:27:50;1.40;;;1.30;;
18661;SDS011;61528;49.456;11.098;2024-02-04T00:30:17;1.80;;;1.70;;
18661;SDS011;61528;49.456;11.098;2024-02-04T00:32:43;1.70;;;1.47;;
18661;SDS011;61528;49.456;11.098;2024-02-04T00:35:09;1.30;;;1.20;;
18661;SDS011;61528;49.456;11.098;2024-02-04T00:37:35;1.40;;;1.30;;
18661;SDS011;61528;49.456;11.098;2024-02-04T00:40:02;1.37;;;1.27;;
18661;SDS011;61528;49.456;11.098;2024-02-04T00:42:29;1.47;;;1.37;;
18661;SDS011;61528;49.456;11.098;2024-02-04T00:44:55;1.47;;;1.30;;
18661;SDS011;61528;49.456;11.098;2024-02-04T00:47:21;1.33;;;0.93;;
18661;SDS011;61528;49.456;11.098;2024-02-04T00:49:48;1.20;;;1.10;;
18661;SDS011;61528;49.456;11.098;2024-02-04T00:52:14;1.00;;;1.00;;
18661;SDS011;61528;49.456;11.098;2024-02-04T00:54:40;2.23;;;1.10;;
18661;SDS011;61528;49.456;11.098;2024-02-04T00:57:06;1.23;;;1.20;;
18661;SDS011;61528;49.456;11.098;2024-02-04T00:59:32;1.30;;;1.20;;
18661;SDS011;61528;49.456;11.098;2024-02-04T01:01:58;1.30;;;1.20;;
18661;SDS011;61528;49.456;11.098;2024-02-04T01:04:25;1.47;;;1.13;;
18661;SDS011;61528;49.456;11.098;2024-02-04T01:06:51;1.10;;;1.00;;
18661;SDS011;61528;49.456;11.098;2024-02-04T01:09:17;1.83;;;1.40;;
18661;SDS011;61528;49.456;11.098;2024-02-04T01:11:43;1.23;;;1.13;;
18661;SDS011;61528;49.456;11.098;2024-02-04T01:14:10;1.27;;;1.17;;
18661;SDS011;61528;49.456;11.098;2024-02-04T01:16:36;1.30;;;1.20;;
18661;SDS011;61528;49.456;11.098;2024-02-04T01:19:02;2.00;;;1.33;;
18661;SDS011;61528;49.456;11.098;2024-02-04T01:21:28;1.10;;;1.00;;
18661;SDS011;61528;49.456;11.098;2024-02-04T01:23:54;1.30;;;1.20;;
18661;SDS011;61528;49.456;11.098;2024-02-04T01:26:20;2.20;;;1.30;;
18661;SDS011;61528;49.456;11.098;2024-02-04T01:28:49;1.60;;;1.50;;
18661;SDS011;61528;49.456;11.098;2024-02-04T01:31:15;1.30;;;1.20;;
18661;SDS011;61528;49.456;11.098;2024-02-04T01:33:41;1.90;;;1.30;;
18661;SDS011;61528;49.456;11.098;2024-02-04T01:36:07;1.40;;;1.30;;
18661;SDS011;61528;49.456;11.098;2024-02-04T01:38:33;1.57;;;1.47;;
18661;SDS011;61528;49.456;11.098;2024-02-04T01:40:59;1.30;;;1.20;;
18661;SDS011;61528;49.456;11.098;2024-02-04T01:43:25;1.70;;;1.20;;
18661;SDS011;61528;49.456;11.098;2024-02-04T01:45:51;1.83;;;1.10;;
18661;SDS011;61528;49.456;11.098;2024-02-04T01:48:21;1.20;;;1.10;;
18661;SDS011;61528;49.456;11.098;2024-02-04T01:50:47;1.30;;;1.20;;
18661;SDS011;61528;49.456;11.098;2024-02-04T01:53:15;1.23;;;1.13;;
18661;SDS011;61528;49.456;11.098;2024-02-04T01:55:41;1.40;;;1.23;;
18661;SDS011;61528;49.456;11.098;2024-02-04T01:58:08;1.43;;;1.10;;
18661;SDS011;61528;49.456;11.098;2024-02-04T02:00:35;1.20;;;1.10;;
18661;SDS011;61528;49.456;11.098;2024-02-04T02:03:01;1.20;;;1.10;;
18661;SDS011;61528;49.456;11.098;2024-02-04T02:05:27;2.00;;;1.40;;
18661;SDS011;61528;49.456;11.098;2024-02-04T02:07:53;1.23;;;1.17;;
18661;SDS011;61528;49.456;11.098;2024-02-04T02:10:20;1.40;;;1.30;;
18661;SDS011;61528;49.456;11.098;2024-02-04T02:12:54;1.83;;;1.30;;
18661;SDS011;61528;49.456;11.098;2024-02-04T02:15:21;1.60;;;1.50;;
18661;SDS011;61528;49.456;11.098;2024-02-04T02:20:32;1.33;;;1.23;;
18661;SDS011;61528;49.456;11.098;2024-02-04T02:23:10;2.47;;;1.40;;
18661;SDS011;61528;49.456;11.098;2024-02-04T02:25:37;1.40;;;1.30;;
18661;SDS011;61528;49.456;11.098;2024-02-04T02:28:04;1.20;;;1.10;;
18661;SDS011;61528;49.456;11.098;2024-02-04T02:30:30;1.30;;;1.20;;
18661;SDS011;61528;49.456;11.098;2024-02-04T02:32:56;1.67;;;1.30;;
18661;SDS011;61528;49.456;11.098;2024-02-04T02:35:22;1.50;;;1.33;;
18661;SDS011;61528;49.456;11.098;2024-02-04T03:19:17;1.50;;;1.40;;
18661;SDS011;61528;49.456;11.098;2024-02-04T03:21:43;1.60;;;1.50;;
18661;SDS011;61528;49.456;11.098;2024-02-04T03:24:09;1.67;;;1.57;;
18661;SDS011;61528;49.456;11.098;2024-02-04T03:26:35;2.57;;;1.60;;
18661;SDS011;61528;49.456;11.098;2024-02-04T03:29:01;1.63;;;1.53;;
18661;SDS011;61528;49.456;11.098;2024-02-04T03:31:29;1.70;;;1.60;;
18661;SDS011;61528;49.456;11.098;2024-02-04T03:33:55;1.60;;;1.50;;
18661;SDS011;61528;49.456;11.098;2024-02-04T03:36:22;1.90;;;1.80;;
18661;SDS011;61528;49.456;11.098;2024-02-04T03:38:49;1.50;;;1.40;;
18661;SDS011;61528;49.456;11.098;2024-02-04T03:41:15;1.90;;;1.70;;
18661;SDS011;61528;49.456;11.098;2024-02-04T03:43:42;3.30;;;1.90;;
18661;SDS011;61528;49.456;11.098;2024-02-04T03:46:08;1.83;;;1.70;;
18661;SDS011;61528;49.456;11.098;2024-02-04T03:48:34;1.80;;;1.70;;
18661;SDS011;61528;49.456;11.098;2024-02-04T03:51:00;2.50;;;1.70;;
18661;SDS011;61528;49.456;11.098;2024-02-04T03:53:27;2.03;;;1.83;;
18661;SDS011;61528;49.456;11.098;2024-02-04T03:55:53;2.00;;;1.83;;
18661;SDS011;61528;49.456;11.098;2024-02-04T03:58:19;1.83;;;1.73;;
18661;SDS011;61528;49.456;11.098;2024-02-04T04:00:54;1.97;;;1.77;;
18661;SDS011;61528;49.456;11.098;2024-02-04T04:03:20;2.00;;;1.77;;
18661;SDS011;61528;49.456;11.098;2024-02-04T04:05:47;1.80;;;1.60;;
18661;SDS011;61528;49.456;11.098;2024-02-04T04:08:13;2.13;;;1.93;;
18661;SDS011;61528;49.456;11.098;2024-02-04T04:10:39;3.80;;;2.10;;
18661;SDS011;61528;49.456;11.098;2024-02-04T04:13:05;1.83;;;1.73;;
18661;SDS011;61528;49.456;11.098;2024-02-04T04:15:31;2.17;;;1.97;;
18661;SDS011;61528;49.456;11.098;2024-02-04T04:17:57;1.80;;;1.57;;
18661;SDS011;61528;49.456;11.098;2024-02-04T04:20:23;2.13;;;1.93;;
18661;SDS011;61528;49.456;11.098;2024-02-04T04:22:49;2.83;;;2.20;;
18661;SDS011;61528;49.456;11.098;2024-02-04T04:25:16;1.70;;;1.60;;
18661;SDS011;61528;49.456;11.098;2024-02-04T04:27:43;2.43;;;2.00;;
18661;SDS011;61528;49.456;11.098;2024-02-04T04:30:09;1.57;;;1.47;;
18661;SDS011;61528;49.456;11.098;2024-02-04T04:32:35;1.77;;;1.67;;
18661;SDS011;61528;49.456;11.098;2024-02-04T04:35:02;2.50;;;1.77;;
18661;SDS011;61528;49.456;11.098;2024-02-04T04:37:28;2.10;;;1.90;;
18661;SDS011;61528;49.456;11.098;2024-02-04T04:39:54;2.03;;;1.87;;
18661;SDS011;61528;49.456;11.098;2024-02-04T04:42:20;1.70;;;1.60;;
18661;SDS011;61528;49.456;11.098;2024-02-04T04:44:47;1.60;;;1.50;;
18661;SDS011;61528;49.456;11.098;2024-02-04T04:47:14;2.10;;;1.90;;
18661;SDS011;61528;49.456;11.098;2024-02-04T04:49:40;1.70;;;1.60;;
18661;SDS011;61528;49.456;11.098;2024-02-04T04:52:07;2.20;;;1.90;;
18661;SDS011;61528;49.456;11.098;2024-02-04T04:54:33;1.67;;;1.57;;
18661;SDS011;61528;49.456;11.098;2024-02-04T04:57:00;1.50;;;1.40;;
18661;SDS011;61528;49.456;11.098;2024-02-04T04:59:26;2.73;;;1.67;;
18661;SDS011;61528;49.456;11.098;2024-02-04T05:01:52;1.53;;;1.30;;
18661;SDS011;61528;49.456;11.098;2024-02-04T05:04:18;1.40;;;1.30;;
18661;SDS011;61528;49.456;11.098;2024-02-04T05:06:44;1.30;;;1.20;;
18661;SDS011;61528;49.456;11.098;2024-02-04T05:09:10;1.50;;;1.40;;
18661;SDS011;61528;49.456;11.098;2024-02-04T05:11:37;2.70;;;1.33;;
18661;SDS011;61528;49.456;11.098;2024-02-04T05:14:03;1.10;;;1.00;;
18661;SDS011;61528;49.456;11.098;2024-02-04T05:16:30;1.77;;;1.00;;
18661;SDS011;61528;49.456;11.098;2024-02-04T05:18:56;1.13;;;1.03;;
18661;SDS011;61528;49.456;11.098;2024-02-04T05:21:22;1.00;;;0.90;;
18661;SDS011;61528;49.456;11.098;2024-02-04T05:23:48;1.17;;;1.10;;
18661;SDS011;61528;49.456;11.098;2024-02-04T05:26:17;1.47;;;1.17;;
18661;SDS011;61528;49.456;11.098;2024-02-04T05:28:44;1.00;;;0.90;;
18661;SDS011;61528;49.456;11.098;2024-02-04T05:31:10;1.00;;;1.00;;
18661;SDS011;61528;49.456;11.098;2024-02-04T05:33:36;0.90;;;0.90;;
18661;SDS011;61528;49.456;11.098;2024-02-04T05:36:03;0.73;;;0.73;;
18661;SDS011;61528;49.456;11.098;2024-02-04T05:38:30;1.17;;;0.90;;
18661;SDS011;61528;49.456;11.098;2024-02-04T05:40:56;0.90;;;0.90;;
18661;SDS011;61528;49.456;11.098;2024-02-04T05:43:22;0.90;;;0.90;;
18661;SDS011;61528;49.456;11.098;2024-02-04T05:45:48;0.90;;;0.80;;
18661;SDS011;61528;49.456;11.098;2024-02-04T05:48:14;0.57;;;0.57;;
18661;SDS011;61528;49.456;11.098;2024-02-04T05:50:40;1.07;;;0.90;;
18661;SDS011;61528;49.456;11.098;2024-02-04T05:53:06;0.70;;;0.70;;
18661;SDS011;61528;49.456;11.098;2024-02-04T05:55:33;0.87;;;0.60;;
18661;SDS011;61528;49.456;11.098;2024-02-04T05:57:59;0.50;;;0.50;;
18661;SDS011;61528;49.456;11.098;2024-02-04T06:00:25;0.97;;;0.50;;
18661;SDS011;61528;49.456;11.098;2024-02-04T06:02:52;0.60;;;0.60;;
18661;SDS011;61528;49.456;11.098;2024-02-04T06:05:18;0.60;;;0.60;;
18661;SDS011;61528;49.456;11.098;2024-02-04T06:07:44;0.50;;;0.50;;
18661;SDS011;61528;49.456;11.098;2024-02-04T06:10:10;0.60;;;0.60;;
18661;SDS011;61528;49.456;11.098;2024-02-04T06:12:37;0.50;;;0.50;;
18661;SDS011;61528;49.456;11.098;2024-02-04T06:15:06;0.83;;;0.60;;
18661;SDS011;61528;49.456;11.098;2024-02-04T06:17:38;1.73;;;0.70;;
18661;SDS011;61528;49.456;11.098;2024-02-04T06:20:04;1.90;;;0.70;;
18661;SDS011;61528;49.456;11.098;2024-02-04T06:22:30;0.50;;;0.50;;
18661;SDS011;61528;49.456;11.098;2024-02-04T06:24:56;0.30;;;0.30;;
18661;SDS011;61528;49.456;11.098;2024-02-04T06:27:22;0.50;;;0.50;;
18661;SDS011;61528;49.456;11.098;2024-02-04T06:29:49;0.50;;;0.50;;
18661;SDS011;61528;49.456;11.098;2024-02-04T06:32:16;1.23;;;0.73;;
18661;SDS011;61528;49.456;11.098;2024-02-04T06:34:45;0.83;;;0.50;;
18661;SDS011;61528;49.456;11.098;2024-02-04T06:37:11;0.40;;;0.40;;
18661;SDS011;61528;49.456;11.098;2024-02-04T06:39:37;0.50;;;0.50;;
18661;SDS011;61528;49.456;11.098;2024-02-04T06:42:04;0.50;;;0.50;;
18661;SDS011;61528;49.456;11.098;2024-02-04T06:44:30;0.40;;;0.40;;
18661;SDS011;61528;49.456;11.098;2024-02-04T06:46:56;0.50;;;0.50;;
18661;SDS011;61528;49.456;11.098;2024-02-04T06:49:22;0.47;;;0.47;;
18661;SDS011;61528;49.456;11.098;2024-02-04T06:51:49;1.53;;;0.60;;
18661;SDS011;61528;49.456;11.098;2024-02-04T06:54:16;0.50;;;0.50;;
18661;SDS011;61528;49.456;11.098;2024-02-04T06:56:43;0.40;;;0.40;;
18661;SDS011;61528;49.456;11.098;2024-02-04T06:59:09;0.70;;;0.50;;
18661;SDS011;61528;49.456;11.098;2024-02-04T07:01:35;0.40;;;0.40;;
18661;SDS011;61528;49.456;11.098;2024-02-04T07:04:01;0.83;;;0.50;;
18661;SDS011;61528;49.456;11.098;2024-02-04T07:06:27;1.30;;;0.50;;
18661;SDS011;61528;49.456;11.098;2024-02-04T07:08:53;0.30;;;0.30;;
18661;SDS011;61528;49.456;11.098;2024-02-04T07:11:20;0.50;;;0.50;;
18661;SDS011;61528;49.456;11.098;2024-02-04T07:13:46;0.63;;;0.50;;
18661;SDS011;61528;49.456;11.098;2024-02-04T07:16:12;0.80;;;0.77;;
18661;SDS011;61528;49.456;11.098;2024-02-04T07:18:38;0.50;;;0.50;;
18661;SDS011;61528;49.456;11.098;2024-02-04T07:21:05;0.50;;;0.50;;
18661;SDS011;61528;49.456;11.098;2024-02-04T07:23:31;0.57;;;0.40;;
18661;SDS011;61528;49.456;11.098;2024-02-04T07:25:57;1.10;;;0.43;;
18661;SDS011;61528;49.456;11.098;2024-02-04T07:28:23;1.90;;;0.50;;
18661;SDS011;61528;49.456;11.098;2024-02-04T07:30:49;0.60;;;0.60;;
18661;SDS011;61528;49.456;11.098;2024-02-04T07:33:15;1.17;;;0.40;;
18661;SDS011;61528;49.456;11.098;2024-02-04T07:35:42;4.20;;;2.40;;
18661;SDS011;61528;49.456;11.098;2024-02-04T07:38:08;1.50;;;0.90;;
18661;SDS011;61528;49.456;11.098;2024-02-04T07:40:34;2.13;;;1.40;;
18661;SDS011;61528;49.456;11.098;2024-02-04T07:43:01;0.50;;;0.50;;
18661;SDS011;61528;49.456;11.098;2024-02-04T07:45:27;0.87;;;0.40;;
18661;SDS011;61528;49.456;11.098;2024-02-04T07:47:53;0.50;;;0.40;;
18661;SDS011;61528;49.456;11.098;2024-02-04T07:50:20;0.57;;;0.40;;
18661;SDS011;61528;49.456;11.098;2024-02-04T07:52:46;0.40;;;0.33;;
18661;SDS011;61528;49.456;11.098;2024-02-04T07:55:12;0.50;;;0.40;;
18661;SDS011;61528;49.456;11.098;2024-02-04T07:57:39;0.87;;;0.20;;
18661;SDS011;61528;49.456;11.098;2024-02-04T08:00:05;0.50;;;0.40;;
18661;SDS011;61528;49.456;11.098;2024-02-04T08:02:31;0.30;;;0.30;;
18661;SDS011;61528;49.456;11.098;2024-02-04T08:04:57;1.50;;;0.40;;
18661;SDS011;61528;49.456;11.098;2024-02-04T08:07:23;0.50;;;0.20;;
18661;SDS011;61528;49.456;11.098;2024-02-04T08:09:50;0.60;;;0.40;;
18661;SDS011;61528;49.456;11.098;2024-02-04T08:12:17;0.40;;;0.40;;
18661;SDS011;61528;49.456;11.098;2024-02-04T08:14:43;0.40;;;0.40;;
18661;SDS011;61528;49.456;11.098;2024-02-04T08:17:09;0.37;;;0.30;;
18661;SDS011;61528;49.456;11.098;2024-02-04T08:19:35;0.73;;;0.50;;
18661;SDS011;61528;49.456;11.098;2024-02-04T08:22:01;0.37;;;0.37;;
18661;SDS011;61528;49.456;11.098;2024-02-04T08:24:29;0.20;;;0.20;;
18661;SDS011;61528;49.456;11.098;2024-02-04T08:26:57;0.50;;;0.40;;
18661;SDS011;61528;49.456;11.098;2024-02-04T08:29:23;0.27;;;0.27;;
18661;SDS011;61528;49.456;11.098;2024-02-04T08:31:49;0.30;;;0.30;;
18661;SDS011;61528;49.456;11.098;2024-02-04T08:34:16;0.80;;;0.37;;
18661;SDS011;61528;49.456;11.098;2024-02-04T08:36:42;0.20;;;0.20;;
18661;SDS011;61528;49.456;11.098;2024-02-04T08:39:08;0.20;;;0.20;;
18661;SDS011;61528;49.456;11.098;2024-02-04T08:41:34;0.30;;;0.30;;
18661;SDS011;61528;49.456;11.098;2024-02-04T08:44:00;1.33;;;0.40;;
18661;SDS011;61528;49.456;11.098;2024-02-04T08:46:26;0.37;;;0.30;;
18661;SDS011;61528;49.456;11.098;2024-02-04T08:48:53;0.30;;;0.30;;
18661;SDS011;61528;49.456;11.098;2024-02-04T08:51:19;0.40;;;0.40;;
18661;SDS011;61528;49.456;11.098;2024-02-04T08:53:45;0.30;;;0.30;;
18661;SDS011;61528;49.456;11.098;2024-02-04T08:56:11;0.30;;;0.30;;
18661;SDS011;61528;49.456;11.098;2024-02-04T08:58:37;0.47;;;0.33;;
18661;SDS011;61528;49.456;11.098;2024-02-04T09:01:04;0.37;;;0.37;;
18661;SDS011;61528;49.456;11.098;2024-02-04T09:03:30;0.57;;;0.57;;
18661;SDS011;61528;49.456;11.098;2024-02-04T09:05:57;0.40;;;0.30;;
18661;SDS011;61528;49.456;11.098;2024-02-04T09:08:23;0.30;;;0.30;;
18661;SDS011;61528;49.456;11.098;2024-02-04T09:10:49;0.30;;;0.30;;
18661;SDS011;61528;49.456;11.098;2024-02-04T09:13:15;0.40;;;0.40;;
18661;SDS011;61528;49.456;11.098;2024-02-04T09:15:42;0.50;;;0.40;;
18661;SDS011;61528;49.456;11.098;2024-02-04T09:18:08;0.70;;;0.50;;
18661;SDS011;61528;49.456;11.098;2024-02-04T09:20:34;0.50;;;0.40;;
18661;SDS011;61528;49.456;11.098;2024-02-04T09:23:00;0.30;;;0.30;;
18661;SDS011;61528;49.456;11.098;2024-02-04T09:25:26;0.40;;;0.40;;
18661;SDS011;61528;49.456;11.098;2024-02-04T09:27:52;0.37;;;0.30;;
18661;SDS011;61528;49.456;11.098;2024-02-04T09:30:18;0.47;;;0.40;;
18661;SDS011;61528;49.456;11.098;2024-02-04T09:32:44;0.30;;;0.30;;
18661;SDS011;61528;49.456;11.098;2024-02-04T09:35:11;0.50;;;0.50;;
18661;SDS011;61528;49.456;11.098;2024-02-04T09:37:38;0.30;;;0.30;;
18661;SDS011;61528;49.456;11.098;2024-02-04T09:40:04;0.30;;;0.30;;
18661;SDS011;61528;49.456;11.098;2024-02-04T09:42:30;0.40;;;0.40;;
18661;SDS011;61528;49.456;11.098;2024-02-04T09:44:57;0.30;;;0.30;;
18661;SDS011;61528;49.456;11.098;2024-02-04T09:47:23;0.60;;;0.47;;
18661;SDS011;61528;49.456;11.098;2024-02-04T09:49:49;0.30;;;0.30;;
18661;SDS011;61528;49.456;11.098;2024-02-04T09:52:18;0.40;;;0.40;;
18661;SDS011;61528;49.456;11.098;2024-02-04T09:55:01;0.30;;;0.30;;
18661;SDS011;61528;49.456;11.098;2024-02-04T09:57:31;0.30;;;0.30;;
18661;SDS011;61528;49.456;11.098;2024-02-04T09:59:57;0.47;;;0.47;;
18661;SDS011;61528;49.456;11.098;2024-02-04T10:02:24;0.67;;;0.30;;
18661;SDS011;61528;49.456;11.098;2024-02-04T10:04:50;0.30;;;0.30;;
18661;SDS011;61528;49.456;11.098;2024-02-04T10:07:16;0.40;;;0.30;;
18661;SDS011;61528;49.456;11.098;2024-02-04T10:09:43;1.13;;;0.30;;
18661;SDS011;61528;49.456;11.098;2024-02-04T10:12:10;0.60;;;0.40;;
18661;SDS011;61528;49.456;11.098;2024-02-04T10:14:36;0.93;;;0.30;;
18661;SDS011;61528;49.456;11.098;2024-02-04T10:17:03;1.37;;;0.50;;
18661;SDS011;61528;49.456;11.098;2024-02-04T10:19:29;0.93;;;0.30;;
18661;SDS011;61528;49.456;11.098;2024-02-04T10:22:02;0.40;;;0.40;;
18661;SDS011;61528;49.456;11.098;2024-02-04T10:24:29;0.40;;;0.40;;
18661;SDS011;61528;49.456;11.098;2024-02-04T10:26:55;0.30;;;0.30;;
18661;SDS011;61528;49.456;11.098;2024-02-04T10:29:22;0.23;;;0.23;;
18661;SDS011;61528;49.456;11.098;2024-02-04T10:31:52;0.33;;;0.33;;
18661;SDS011;61528;49.456;11.098;2024-02-04T10:34:18;0.37;;;0.37;;
18661;SDS011;61528;49.456;11.098;2024-02-04T10:36:46;0.20;;;0.20;;
18661;SDS011;61528;49.456;11.098;2024-02-04T10:39:12;0.30;;;0.30;;
18661;SDS011;61528;49.456;11.098;2024-02-04T10:41:40;0.30;;;0.30;;
18661;SDS011;61528;49.456;11.098;2024-02-04T10:44:08;0.30;;;0.30;;
18661;SDS011;61528;49.456;11.098;2024-02-04T10:46:35;0.50;;;0.50;;
18661;SDS011;61528;49.456;11.098;2024-02-04T10:49:03;0.50;;;0.40;;
18661;SDS011;61528;49.456;11.098;2024-02-04T10:51:31;0.20;;;0.20;;
18661;SDS011;61528;49.456;11.098;2024-02-04T10:53:58;0.63;;;0.43;;
18661;SDS011;61528;49.456;11.098;2024-02-04T10:56:45;0.40;;;0.40;;
18661;SDS011;61528;49.456;11.098;2024-02-04T10:59:14;0.60;;;0.37;;
18661;SDS011;61528;49.456;11.098;2024-02-04T11:01:46;0.30;;;0.30;;
18661;SDS011;61528;49.456;11.098;2024-02-04T11:04:15;0.87;;;0.60;;
18661;SDS011;61528;49.456;11.098;2024-02-04T11:06:42;0.40;;;0.40;;
18661;SDS011;61528;49.456;11.098;2024-02-04T11:09:09;0.80;;;0.23;;
18661;SDS011;61528;49.456;11.098;2024-02-04T11:11:38;1.17;;;0.50;;
18661;SDS011;61528;49.456;11.098;2024-02-04T11:14:08;0.50;;;0.50;;
18661;SDS011;61528;49.456;11.098;2024-02-04T11:26:38;0.30;;;0.27;;
18661;SDS011;61528;49.456;11.098;2024-02-04T11:29:07;0.93;;;0.40;;
18661;SDS011;61528;49.456;11.098;2024-02-04T11:31:33;0.40;;;0.40;;
18661;SDS011;61528;49.456;11.098;2024-02-04T11:34:00;0.80;;;0.40;;
18661;SDS011;61528;49.456;11.098;2024-02-04T11:36:27;0.80;;;0.50;;
18661;SDS011;61528;49.456;11.098;2024-02-04T11:38:53;1.30;;;0.40;;
18661;SDS011;61528;49.456;11.098;2024-02-04T11:41:25;0.50;;;0.40;;
18661;SDS011;61528;49.456;11.098;2024-02-04T11:43:55;1.03;;;0.50;;
18661;SDS011;61528;49.456;11.098;2024-02-04T11:46:27;0.50;;;0.50;;
18661;SDS011;61528;49.456;11.098;2024-02-04T11:48:53;0.53;;;0.30;;
18661;SDS011;61528;49.456;11.098;2024-02-04T11:51:23;0.30;;;0.30;;
18661;SDS011;61528;49.456;11.098;2024-02-04T11:53:50;0.50;;;0.40;;
18661;SDS011;61528;49.456;11.098;2024-02-04T11:56:19;0.57;;;0.57;;
18661;SDS011;61528;49.456;11.098;2024-02-04T11:58:46;0.40;;;0.37;;
18661;SDS011;61528;49.456;11.098;2024-02-04T12:01:12;0.60;;;0.40;;
18661;SDS011;61528;49.456;11.098;2024-02-04T12:03:38;0.97;;;0.60;;
18661;SDS011;61528;49.456;11.098;2024-02-04T12:06:05;0.33;;;0.30;;
18661;SDS011;61528;49.456;11.098;2024-02-04T12:08:34;1.13;;;0.50;;
18661;SDS011;61528;49.456;11.098;2024-02-04T12:11:00;0.50;;;0.50;;
18661;SDS011;61528;49.456;11.098;2024-02-04T12:13:27;0.40;;;0.40;;
18661;SDS011;61528;49.456;11.098;2024-02-04T12:15:54;1.63;;;1.00;;
18661;SDS011;61528;49.456;11.098;2024-02-04T12:18:20;0.67;;;0.67;;
18661;SDS011;61528;49.456;11.098;2024-02-04T12:20:47;1.03;;;0.40;;
18661;SDS011;61528;49.456;11.098;2024-02-04T12:23:16;0.47;;;0.40;;
18661;SDS011;61528;49.456;11.098;2024-02-04T12:25:46;0.57;;;0.50;;
18661;SDS011;61528;49.456;11.098;2024-02-04T12:28:13;0.40;;;0.30;;
18661;SDS011;61528;49.456;11.098;2024-02-04T12:30:40;0.33;;;0.33;;
18661;SDS011;61528;49.456;11.098;2024-02-04T12:33:06;0.30;;;0.30;;
18661;SDS011;61528;49.456;11.098;2024-02-04T12:35:33;1.03;;;0.43;;
18661;SDS011;61528;49.456;11.098;2024-02-04T12:38:00;0.40;;;0.40;;
18661;SDS011;61528;49.456;11.098;2024-02-04T12:40:28;0.50;;;0.50;;
18661;SDS011;61528;49.456;11.098;2024-02-04T12:42:55;0.30;;;0.30;;
18661;SDS011;61528;49.456;11.098;2024-02-04T12:45:25;1.07;;;0.50;;
18661;SDS011;61528;49.456;11.098;2024-02-04T12:47:52;1.37;;;0.63;;
18661;SDS011;61528;49.456;11.098;2024-02-04T12:50:19;0.60;;;0.60;;
18661;SDS011;61528;49.456;11.098;2024-02-04T12:52:46;0.50;;;0.50;;
18661;SDS011;61528;49.456;11.098;2024-02-04T12:55:45;0.40;;;0.40;;
18661;SDS011;61528;49.456;11.098;2024-02-04T12:58:05;0.47;;;0.43;;
18661;SDS011;61528;49.456;11.098;2024-02-04T13:00:33;1.83;;;1.23;;
18661;SDS011;61528;49.456;11.098;2024-02-04T13:02:59;2.53;;;0.67;;
18661;SDS011;61528;49.456;11.098;2024-02-04T13:05:26;0.50;;;0.40;;
18661;SDS011;61528;49.456;11.098;2024-02-04T13:07:55;0.40;;;0.40;;
18661;SDS011;61528;49.456;11.098;2024-02-04T13:10:25;0.67;;;0.33;;
18661;SDS011;61528;49.456;11.098;2024-02-04T13:12:58;1.13;;;0.50;;
18661;SDS011;61528;49.456;11.098;2024-02-04T13:15:25;0.37;;;0.30;;
18661;SDS011;61528;49.456;11.098;2024-02-04T13:17:51;0.53;;;0.53;;
18661;SDS011;61528;49.456;11.098;2024-02-04T13:20:18;0.43;;;0.43;;
18661;SDS011;61528;49.456;11.098;2024-02-04T13:22:44;0.60;;;0.60;;
18661;SDS011;61528;49.456;11.098;2024-02-04T13:25:10;0.93;;;0.40;;
18661;SDS011;61528;49.456;11.098;2024-02-04T13:27:36;0.70;;;0.40;;
18661;SDS011;61528;49.456;11.098;2024-02-04T13:30:02;0.40;;;0.40;;
18661;SDS011;61528;49.456;11.098;2024-02-04T13:32:29;0.60;;;0.50;;
18661;SDS011;61528;49.456;11.098;2024-02-04T13:34:55;0.40;;;0.40;;
18661;SDS011;61528;49.456;11.098;2024-02-04T13:37:21;0.50;;;0.50;;
18661;SDS011;61528;49.456;11.098;2024-02-04T13:39:48;0.30;;;0.30;;
18661;SDS011;61528;49.456;11.098;2024-02-04T13:42:16;0.50;;;0.50;;
18661;SDS011;61528;49.456;11.098;2024-02-04T13:44:42;0.40;;;0.40;;
18661;SDS011;61528;49.456;11.098;2024-02-04T13:47:08;0.40;;;0.40;;
18661;SDS011;61528;49.456;11.098;2024-02-04T13:49:34;1.23;;;0.40;;
18661;SDS011;61528;49.456;11.098;2024-02-04T13:52:00;1.10;;;0.40;;
18661;SDS011;61528;49.456;11.098;2024-02-04T13:54:27;1.17;;;0.70;;
18661;SDS011;61528;49.456;11.098;2024-02-04T13:56:53;0.97;;;0.70;;
18661;SDS011;61528;49.456;11.098;2024-02-04T13:59:19;0.50;;;0.50;;
18661;SDS011;61528;49.456;11.098;2024-02-04T14:01:45;0.47;;;0.40;;
18661;SDS011;61528;49.456;11.098;2024-02-04T14:04:11;1.00;;;0.67;;
18661;SDS011;61528;49.456;11.098;2024-02-04T14:06:37;0.47;;;0.47;;
18661;SDS011;61528;49.456;11.098;2024-02-04T14:09:04;0.57;;;0.47;;
18661;SDS011;61528;49.456;11.098;2024-02-04T14:11:30;0.47;;;0.47;;
18661;SDS011;61528;49.456;11.098;2024-02-04T14:13:57;0.50;;;0.50;;
18661;SDS011;61528;49.456;11.098;2024-02-04T14:16:23;0.40;;;0.40;;
18661;SDS011;61528;49.456;11.098;2024-02-04T14:18:50;0.83;;;0.57;;
18661;SDS011;61528;49.456;11.098;2024-02-04T14:21:16;0.93;;;0.80;;
18661;SDS011;61528;49.456;11.098;2024-02-04T14:23:42;0.77;;;0.77;;
18661;SDS011;61528;49.456;11.098;2024-02-04T14:26:20;0.50;;;0.50;;
18661;SDS011;61528;49.456;11.098;2024-02-04T14:31:35;1.27;;;0.67;;
18661;SDS011;61528;49.456;11.098;2024-02-04T14:34:02;0.50;;;0.50;;
18661;SDS011;61528;49.456;11.098;2024-02-04T14:36:29;1.93;;;0.80;;
18661;SDS011;61528;49.456;11.098;2024-02-04T14:38:55;0.80;;;0.80;;
18661;SDS011;61528;49.456;11.098;2024-02-04T14:41:23;1.00;;;0.60;;
18661;SDS011;61528;49.456;11.098;2024-02-04T14:43:51;0.90;;;0.80;;
18661;SDS011;61528;49.456;11.098;2024-02-04T14:46:17;1.00;;;0.90;;
18661;SDS011;61528;49.456;11.098;2024-02-04T14:48:43;1.23;;;0.57;;
18661;SDS011;61528;49.456;11.098;2024-02-04T14:51:09;0.50;;;0.50;;
18661;SDS011;61528;49.456;11.098;2024-02-04T14:53:36;0.93;;;0.77;;
18661;SDS011;61528;49.456;11.098;2024-02-04T14:56:02;0.90;;;0.70;;
18661;SDS011;61528;49.456;11.098;2024-02-04T14:58:28;0.77;;;0.77;;
18661;SDS011;61528;49.456;11.098;2024-02-04T15:00:54;1.00;;;0.90;;
18661;SDS011;61528;49.456;11.098;2024-02-04T15:03:20;0.70;;;0.70;;
18661;SDS011;61528;49.456;11.098;2024-02-04T15:05:47;1.13;;;0.60;;
18661;SDS011;61528;49.456;11.098;2024-02-04T15:08:13;0.70;;;0.70;;
18661;SDS011;61528;49.456;11.098;2024-02-04T15:10:39;1.03;;;0.70;;
18661;SDS011;61528;49.456;11.098;2024-02-04T15:13:05;0.90;;;0.87;;
18661;SDS011;61528;49.456;11.098;2024-02-04T15:15:32;0.60;;;0.60;;
18661;SDS011;61528;49.456;11.098;2024-02-04T15:17:58;0.70;;;0.70;;
18661;SDS011;61528;49.456;11.098;2024-02-04T15:20:24;0.60;;;0.60;;
18661;SDS011;61528;49.456;11.098;2024-02-04T15:22:50;0.70;;;0.70;;
18661;SDS011;61528;49.456;11.098;2024-02-04T15:25:16;0.63;;;0.63;;
18661;SDS011;61528;49.456;11.098;2024-02-04T15:27:43;0.70;;;0.70;;